createdAt,value
2018-08-30T00:00:12.383Z,39.72
2018-08-30T00:01:12.400Z,39.14
2018-08-30T00:02:12.396Z,39.43
2018-08-30T00:03:12.425Z,39.43
2018-08-30T00:04:12.553Z,39.72
2018-08-30T00:05:12.452Z,39.72
2018-08-30T00:06:12.991Z,39.81
2018-08-30T00:07:12.479Z,39.81
2018-08-30T00:08:13.024Z,40.20
2018-08-30T00:09:12.747Z,40.20
2018-08-30T00:10:12.512Z,40.11
2018-08-30T00:11:13.087Z,40.39
2018-08-30T00:12:12.543Z,40.68
2018-08-30T00:13:12.569Z,40.68
2018-08-30T00:14:12.789Z,40.78
2018-08-30T00:15:12.598Z,40.68
2018-08-30T00:16:12.611Z,40.88
2018-08-30T00:17:12.827Z,40.95
2018-08-30T00:18:12.620Z,40.95
2018-08-30T00:19:12.933Z,41.24
2018-08-30T00:20:12.675Z,41.24
2018-08-30T00:21:12.684Z,41.43
2018-08-30T00:22:12.696Z,41.53
2018-08-30T00:23:12.709Z,41.72
2018-08-30T00:24:12.952Z,41.72
2018-08-30T00:25:12.736Z,41.91
2018-08-30T00:26:12.950Z,41.72
2018-08-30T00:27:12.752Z,41.91
2018-08-30T00:28:12.781Z,41.82
2018-08-30T00:29:12.940Z,42.10
2018-08-30T00:30:12.814Z,42.00
2018-08-30T00:31:12.822Z,42.20
2018-08-30T00:32:12.838Z,42.30
2018-08-30T00:33:12.848Z,42.30
2018-08-30T00:34:12.933Z,42.20
2018-08-30T00:35:13.014Z,42.39
2018-08-30T00:36:12.891Z,42.30
2018-08-30T00:37:13.718Z,42.68
2018-08-30T00:38:12.923Z,42.49
2018-08-30T00:39:12.933Z,42.77
2018-08-30T00:40:12.945Z,42.39
2018-08-30T00:41:13.138Z,42.77
2018-08-30T00:42:12.965Z,42.97
2018-08-30T00:43:13.000Z,42.77
2018-08-30T00:44:13.106Z,43.07
2018-08-30T00:45:13.023Z,43.07
2018-08-30T00:46:13.148Z,43.07
2018-08-30T00:47:13.052Z,43.14
2018-08-30T00:48:13.054Z,43.43
2018-08-30T00:49:13.070Z,43.26
2018-08-30T00:50:13.632Z,43.43
2018-08-30T00:51:13.785Z,43.71
2018-08-30T00:52:13.119Z,43.74
2018-08-30T00:53:13.129Z,43.52
2018-08-30T00:54:13.135Z,43.33
2018-08-30T00:55:13.151Z,43.52
2018-08-30T00:56:13.428Z,43.71
2018-08-30T00:57:13.175Z,43.91
2018-08-30T00:58:13.184Z,43.81
2018-08-30T00:59:13.276Z,44.00
2018-08-30T01:00:13.211Z,44.20
2018-08-30T01:01:13.349Z,44.48
2018-08-30T01:02:13.238Z,44.48
2018-08-30T01:03:13.255Z,44.77
2018-08-30T01:04:13.270Z,44.96
2018-08-30T01:05:13.293Z,44.96
2018-08-30T01:06:13.407Z,44.87
2018-08-30T01:07:13.310Z,44.96
2018-08-30T01:08:13.335Z,45.35
2018-08-30T01:09:13.355Z,45.64
2018-08-30T01:10:13.367Z,45.45
2018-08-30T01:11:13.466Z,45.35
2018-08-30T01:12:13.391Z,45.92
2018-08-30T01:13:13.408Z,45.52
2018-08-30T01:14:13.417Z,46.09
2018-08-30T01:15:13.434Z,46.09
2018-08-30T01:16:13.596Z,45.90
2018-08-30T01:17:13.466Z,45.61
2018-08-30T01:18:13.471Z,46.19
2018-08-30T01:19:13.499Z,46.19
2018-08-30T01:20:13.525Z,46.38
2018-08-30T01:21:13.618Z,46.38
2018-08-30T01:22:13.533Z,46.09
2018-08-30T01:23:13.537Z,46.19
2018-08-30T01:24:13.628Z,46.19
2018-08-30T01:25:13.569Z,46.28
2018-08-30T01:26:13.737Z,46.28
2018-08-30T01:27:13.600Z,46.19
2018-08-30T01:28:13.609Z,46.28
2018-08-30T01:29:13.830Z,46.48
2018-08-30T01:30:13.625Z,46.58
2018-08-30T01:31:13.806Z,46.58
2018-08-30T01:32:13.662Z,46.48
2018-08-30T01:33:13.676Z,46.48
2018-08-30T01:34:13.691Z,46.67
2018-08-30T01:35:13.706Z,46.77
2018-08-30T01:36:13.859Z,46.77
2018-08-30T01:37:13.735Z,46.67
2018-08-30T01:38:13.742Z,46.67
2018-08-30T01:39:13.739Z,46.77
2018-08-30T01:40:13.777Z,46.86
2018-08-30T01:41:13.937Z,46.86
2018-08-30T01:42:13.800Z,46.48
2018-08-30T01:43:13.818Z,46.77
2018-08-30T01:44:13.823Z,46.86
2018-08-30T01:45:13.842Z,47.05
2018-08-30T01:46:14.106Z,47.05
2018-08-30T01:47:13.872Z,47.05
2018-08-30T01:48:13.870Z,47.25
2018-08-30T01:49:13.897Z,47.25
2018-08-30T01:50:13.906Z,47.15
2018-08-30T01:51:13.904Z,47.15
2018-08-30T01:52:14.086Z,47.15
2018-08-30T01:53:13.958Z,47.05
2018-08-30T01:54:13.965Z,47.15
2018-08-30T01:55:13.974Z,47.25
2018-08-30T01:56:13.973Z,47.05
2018-08-30T01:57:14.145Z,46.86
2018-08-30T01:58:14.007Z,47.05
2018-08-30T01:59:14.026Z,47.15
2018-08-30T02:00:14.045Z,46.96
2018-08-30T02:01:14.060Z,47.05
2018-08-30T02:02:14.317Z,47.05
2018-08-30T02:03:14.081Z,47.05
2018-08-30T02:04:14.097Z,47.05
2018-08-30T02:05:14.112Z,46.96
2018-08-30T02:06:14.129Z,47.34
2018-08-30T02:07:14.283Z,46.67
2018-08-30T02:08:14.152Z,46.74
2018-08-30T02:09:14.165Z,47.25
2018-08-30T02:10:14.163Z,47.32
2018-08-30T02:11:14.173Z,47.15
2018-08-30T02:12:14.343Z,47.34
2018-08-30T02:13:14.212Z,47.32
2018-08-30T02:14:14.229Z,47.22
2018-08-30T02:15:14.241Z,47.32
2018-08-30T02:16:14.239Z,46.94
2018-08-30T02:17:14.419Z,47.13
2018-08-30T02:18:14.282Z,46.74
2018-08-30T02:19:14.297Z,46.74
2018-08-30T02:20:14.311Z,47.03
2018-08-30T02:21:14.324Z,47.03
2018-08-30T02:22:14.485Z,47.03
2018-08-30T02:23:14.349Z,46.94
2018-08-30T02:24:14.364Z,46.94
2018-08-30T02:25:14.364Z,47.03
2018-08-30T02:26:14.389Z,47.03
2018-08-30T02:27:14.649Z,46.55
2018-08-30T02:28:14.419Z,47.03
2018-08-30T02:29:14.428Z,46.74
2018-08-30T02:30:14.452Z,46.07
2018-08-30T02:31:14.452Z,46.36
2018-08-30T02:32:14.572Z,46.17
2018-08-30T02:33:14.485Z,46.26
2018-08-30T02:34:14.489Z,45.78
2018-08-30T02:35:14.507Z,45.59
2018-08-30T02:36:14.520Z,45.78
2018-08-30T02:37:14.688Z,45.78
2018-08-30T02:38:14.549Z,45.40
2018-08-30T02:39:14.544Z,44.82
2018-08-30T02:40:14.568Z,45.01
2018-08-30T02:41:14.590Z,44.73
2018-08-30T02:42:14.795Z,44.92
2018-08-30T02:43:14.620Z,44.54
2018-08-30T02:44:14.627Z,44.34
2018-08-30T02:45:14.625Z,44.06
2018-08-30T02:46:14.653Z,43.48
2018-08-30T02:47:14.749Z,43.77
2018-08-30T02:48:14.687Z,43.87
2018-08-30T02:49:14.690Z,43.38
2018-08-30T02:50:14.697Z,43.38
2018-08-30T02:51:14.716Z,43.19
2018-08-30T02:52:14.831Z,43.10
2018-08-30T02:53:14.746Z,43.19
2018-08-30T02:54:14.760Z,43.00
2018-08-30T02:55:14.775Z,42.71
2018-08-30T02:56:14.773Z,42.71
2018-08-30T02:57:14.944Z,42.61
2018-08-30T02:58:14.806Z,42.61
2018-08-30T02:59:14.829Z,42.13
2018-08-30T03:00:14.836Z,42.13
2018-08-30T03:01:14.853Z,42.23
2018-08-30T03:02:14.863Z,42.04
2018-08-30T03:03:15.026Z,42.04
2018-08-30T03:04:14.892Z,41.85
2018-08-30T03:05:14.907Z,41.85
2018-08-30T03:06:14.918Z,41.75
2018-08-30T03:07:14.935Z,41.56
2018-08-30T03:08:14.944Z,41.66
2018-08-30T03:09:15.113Z,41.46
2018-08-30T03:10:14.955Z,41.46
2018-08-30T03:11:14.978Z,41.27
2018-08-30T03:12:14.998Z,41.27
2018-08-30T03:13:15.007Z,41.37
2018-08-30T03:14:15.119Z,41.37
2018-08-30T03:15:15.570Z,41.37
2018-08-30T03:16:15.039Z,41.37
2018-08-30T03:17:15.065Z,41.56
2018-08-30T03:18:15.071Z,41.37
2018-08-30T03:19:15.191Z,41.46
2018-08-30T03:20:15.100Z,41.44
2018-08-30T03:21:15.648Z,41.56
2018-08-30T03:22:15.129Z,41.44
2018-08-30T03:23:15.140Z,41.75
2018-08-30T03:24:15.257Z,41.83
2018-08-30T03:25:15.165Z,41.85
2018-08-30T03:26:15.167Z,41.83
2018-08-30T03:27:15.190Z,41.93
2018-08-30T03:28:15.207Z,42.02
2018-08-30T03:29:15.369Z,41.93
2018-08-30T03:30:15.298Z,42.02
2018-08-30T03:31:15.245Z,42.30
2018-08-30T03:32:15.251Z,42.02
2018-08-30T03:33:15.274Z,42.50
2018-08-30T03:34:15.384Z,42.60
2018-08-30T03:35:15.281Z,42.40
2018-08-30T03:36:15.314Z,42.60
2018-08-30T03:37:15.325Z,42.98
2018-08-30T03:38:15.317Z,42.88
2018-08-30T03:39:16.035Z,42.69
2018-08-30T03:40:15.361Z,42.88
2018-08-30T03:41:15.380Z,42.88
2018-08-30T03:42:15.386Z,42.88
2018-08-30T03:43:15.398Z,42.98
2018-08-30T03:44:15.562Z,42.98
2018-08-30T03:45:15.420Z,43.36
2018-08-30T03:46:15.440Z,43.07
2018-08-30T03:47:15.449Z,43.07
2018-08-30T03:48:15.468Z,42.88
2018-08-30T03:49:15.576Z,42.98
2018-08-30T03:50:15.473Z,43.46
2018-08-30T03:51:15.502Z,43.65
2018-08-30T03:52:15.535Z,43.65
2018-08-30T03:53:15.532Z,43.36
2018-08-30T03:54:15.790Z,43.55
2018-08-30T03:55:15.644Z,43.27
2018-08-30T03:56:15.550Z,43.55
2018-08-30T03:57:15.584Z,43.46
2018-08-30T03:58:15.576Z,43.55
2018-08-30T03:59:15.755Z,43.46
2018-08-30T04:00:15.609Z,43.46
2018-08-30T04:01:15.619Z,43.94
2018-08-30T04:02:15.681Z,43.84
2018-08-30T04:03:15.655Z,43.94
2018-08-30T04:04:15.901Z,44.13
2018-08-30T04:05:15.680Z,44.03
2018-08-30T04:06:15.690Z,44.13
2018-08-30T04:07:15.712Z,44.32
2018-08-30T04:08:15.720Z,44.51
2018-08-30T04:09:15.885Z,44.42
2018-08-30T04:10:15.788Z,44.51
2018-08-30T04:11:15.743Z,44.51
2018-08-30T04:12:15.775Z,45.18
2018-08-30T04:13:15.771Z,45.00
2018-08-30T04:14:15.952Z,44.90
2018-08-30T04:15:15.812Z,44.80
2018-08-30T04:16:15.824Z,44.80
2018-08-30T04:17:15.836Z,44.80
2018-08-30T04:18:15.851Z,44.90
2018-08-30T04:19:15.865Z,44.90
2018-08-30T04:20:15.961Z,44.80
2018-08-30T04:21:15.872Z,45.18
2018-08-30T04:22:15.898Z,45.47
2018-08-30T04:23:15.914Z,45.37
2018-08-30T04:24:15.926Z,45.28
2018-08-30T04:25:15.940Z,45.67
2018-08-30T04:26:16.190Z,45.67
2018-08-30T04:27:15.970Z,46.05
2018-08-30T04:28:15.975Z,45.86
2018-08-30T04:29:15.988Z,46.14
2018-08-30T04:30:15.993Z,45.67
2018-08-30T04:31:16.102Z,46.14
2018-08-30T04:32:16.029Z,46.60
2018-08-30T04:33:16.027Z,47.01
2018-08-30T04:34:16.057Z,47.17
2018-08-30T04:35:16.063Z,47.75
2018-08-30T04:36:16.232Z,47.75
2018-08-30T04:37:16.086Z,48.04
2018-08-30T04:38:16.102Z,48.33
2018-08-30T04:39:16.102Z,48.80
2018-08-30T04:40:16.134Z,49.00
2018-08-30T04:41:16.294Z,49.67
2018-08-30T04:42:16.175Z,49.67
2018-08-30T04:43:16.168Z,49.86
2018-08-30T04:44:16.182Z,49.67
2018-08-30T04:45:16.193Z,50.34
2018-08-30T04:46:16.357Z,51.01
2018-08-30T04:47:16.225Z,51.10
2018-08-30T04:48:16.234Z,51.01
2018-08-30T04:49:16.232Z,51.01
2018-08-30T04:50:16.342Z,51.01
2018-08-30T04:51:16.421Z,51.10
2018-08-30T04:52:16.274Z,51.49
2018-08-30T04:53:16.299Z,51.68
2018-08-30T04:54:16.291Z,51.68
2018-08-30T04:55:16.326Z,51.81
2018-08-30T04:56:16.444Z,52.26
2018-08-30T04:57:16.344Z,52.07
2018-08-30T04:58:16.358Z,52.45
2018-08-30T04:59:16.373Z,52.36
2018-08-30T05:00:16.387Z,52.83
2018-08-30T05:01:16.544Z,52.83
2018-08-30T05:02:16.405Z,52.74
2018-08-30T05:03:16.422Z,53.03
2018-08-30T05:04:16.425Z,52.74
2018-08-30T05:05:16.446Z,53.12
2018-08-30T05:06:16.560Z,53.50
2018-08-30T05:07:16.471Z,53.41
2018-08-30T05:08:16.485Z,53.60
2018-08-30T05:09:16.499Z,53.60
2018-08-30T05:10:16.511Z,53.60
2018-08-30T05:11:16.631Z,53.89
2018-08-30T05:12:16.529Z,54.27
2018-08-30T05:13:16.556Z,54.37
2018-08-30T05:14:16.566Z,54.37
2018-08-30T05:15:16.577Z,54.46
2018-08-30T05:16:16.820Z,54.66
2018-08-30T05:17:16.601Z,54.56
2018-08-30T05:18:16.613Z,54.56
2018-08-30T05:19:16.624Z,54.37
2018-08-30T05:20:16.621Z,55.23
2018-08-30T05:21:16.746Z,55.52
2018-08-30T05:22:16.660Z,55.33
2018-08-30T05:23:16.673Z,55.13
2018-08-30T05:24:16.689Z,55.23
2018-08-30T05:25:16.686Z,55.33
2018-08-30T05:26:16.913Z,55.80
2018-08-30T05:27:16.727Z,55.71
2018-08-30T05:28:16.740Z,55.80
2018-08-30T05:29:16.752Z,56.00
2018-08-30T05:30:16.765Z,56.48
2018-08-30T05:31:16.921Z,56.48
2018-08-30T05:32:16.790Z,57.06
2018-08-30T05:33:16.802Z,57.15
2018-08-30T05:34:16.815Z,57.15
2018-08-30T05:35:16.824Z,57.06
2018-08-30T05:36:16.840Z,57.06
2018-08-30T05:37:16.998Z,56.96
2018-08-30T05:38:16.859Z,56.76
2018-08-30T05:39:16.873Z,56.96
2018-08-30T05:40:16.910Z,56.76
2018-08-30T05:41:16.897Z,57.24
2018-08-30T05:42:16.915Z,58.01
2018-08-30T05:43:17.077Z,57.98
2018-08-30T05:44:16.941Z,57.82
2018-08-30T05:45:16.950Z,57.82
2018-08-30T05:46:16.948Z,58.20
2018-08-30T05:47:16.977Z,58.27
2018-08-30T05:48:17.140Z,58.27
2018-08-30T05:49:17.000Z,58.37
2018-08-30T05:50:17.014Z,58.56
2018-08-30T05:51:17.027Z,58.56
2018-08-30T05:52:17.027Z,58.46
2018-08-30T05:53:17.152Z,58.37
2018-08-30T05:54:17.096Z,58.46
2018-08-30T05:55:17.070Z,58.46
2018-08-30T05:56:17.089Z,58.65
2018-08-30T05:57:17.101Z,58.65
2018-08-30T05:58:17.374Z,59.04
2018-08-30T05:59:17.116Z,59.13
2018-08-30T06:00:17.145Z,59.23
2018-08-30T06:01:17.142Z,59.52
2018-08-30T06:02:17.164Z,59.23
2018-08-30T06:03:17.320Z,59.52
2018-08-30T06:04:17.184Z,59.42
2018-08-30T06:05:17.202Z,59.42
2018-08-30T06:06:17.214Z,59.61
2018-08-30T06:07:17.298Z,59.71
2018-08-30T06:08:17.502Z,59.52
2018-08-30T06:09:17.245Z,60.19
2018-08-30T06:10:17.263Z,60.19
2018-08-30T06:11:17.278Z,60.00
2018-08-30T06:12:17.273Z,60.19
2018-08-30T06:13:17.445Z,60.09
2018-08-30T06:14:17.296Z,60.09
2018-08-30T06:15:17.322Z,60.00
2018-08-30T06:16:17.338Z,59.90
2018-08-30T06:17:17.332Z,60.00
2018-08-30T06:18:17.506Z,60.19
2018-08-30T06:19:17.371Z,60.38
2018-08-30T06:20:17.383Z,61.05
2018-08-30T06:21:17.395Z,60.76
2018-08-30T06:22:17.413Z,60.86
2018-08-30T06:23:17.571Z,60.86
2018-08-30T06:24:17.435Z,61.05
2018-08-30T06:25:17.430Z,61.31
2018-08-30T06:26:17.443Z,61.11
2018-08-30T06:27:17.462Z,61.53
2018-08-30T06:28:17.634Z,61.31
2018-08-30T06:29:17.604Z,61.21
2018-08-30T06:30:17.509Z,61.79
2018-08-30T06:31:17.522Z,62.46
2018-08-30T06:32:17.519Z,62.17
2018-08-30T06:33:18.335Z,62.46
2018-08-30T06:34:17.559Z,62.36
2018-08-30T06:35:17.568Z,63.13
2018-08-30T06:36:17.570Z,62.65
2018-08-30T06:37:17.578Z,62.36
2018-08-30T06:38:17.707Z,62.36
2018-08-30T06:39:17.618Z,62.74
2018-08-30T06:40:17.630Z,62.55
2018-08-30T06:41:17.641Z,62.84
2018-08-30T06:42:17.653Z,62.65
2018-08-30T06:43:17.818Z,63.32
2018-08-30T06:44:17.684Z,63.22
2018-08-30T06:45:17.729Z,63.70
2018-08-30T06:46:17.703Z,63.51
2018-08-30T06:47:17.713Z,64.28
2018-08-30T06:48:17.881Z,64.76
2018-08-30T06:49:17.740Z,64.09
2018-08-30T06:50:17.787Z,64.47
2018-08-30T06:51:17.766Z,64.18
2018-08-30T06:52:17.766Z,64.09
2018-08-30T06:53:17.927Z,63.70
2018-08-30T06:54:17.801Z,63.99
2018-08-30T06:55:17.795Z,64.85
2018-08-30T06:56:17.846Z,64.47
2018-08-30T06:57:17.840Z,64.95
2018-08-30T06:58:17.856Z,64.95
2018-08-30T06:59:18.008Z,64.85
2018-08-30T07:00:17.879Z,65.23
2018-08-30T07:01:17.884Z,64.95
2018-08-30T07:02:17.882Z,65.05
2018-08-30T07:03:17.891Z,65.23
2018-08-30T07:04:18.225Z,64.66
2018-08-30T07:05:17.935Z,65.05
2018-08-30T07:06:17.955Z,65.23
2018-08-30T07:07:17.957Z,65.05
2018-08-30T07:08:18.063Z,65.14
2018-08-30T07:09:18.129Z,65.81
2018-08-30T07:10:17.994Z,66.00
2018-08-30T07:11:18.004Z,65.05
2018-08-30T07:12:18.018Z,65.23
2018-08-30T07:13:18.031Z,65.42
2018-08-30T07:14:18.294Z,65.52
2018-08-30T07:15:18.041Z,65.62
2018-08-30T07:16:18.062Z,65.81
2018-08-30T07:17:18.084Z,66.09
2018-08-30T07:18:18.092Z,65.81
2018-08-30T07:19:18.320Z,66.00
2018-08-30T07:20:18.114Z,66.48
2018-08-30T07:21:18.133Z,66.19
2018-08-30T07:22:18.135Z,66.09
2018-08-30T07:23:18.148Z,66.58
2018-08-30T07:24:18.314Z,66.29
2018-08-30T07:25:18.157Z,66.48
2018-08-30T07:26:18.179Z,66.29
2018-08-30T07:27:18.199Z,66.29
2018-08-30T07:28:18.207Z,66.48
2018-08-30T07:29:18.475Z,66.86
2018-08-30T07:30:18.229Z,66.86
2018-08-30T07:31:18.235Z,66.96
2018-08-30T07:32:18.259Z,67.15
2018-08-30T07:33:18.272Z,67.05
2018-08-30T07:34:18.586Z,66.67
2018-08-30T07:35:18.277Z,66.86
2018-08-30T07:36:18.293Z,66.96
2018-08-30T07:37:18.329Z,66.96
2018-08-30T07:38:18.332Z,66.77
2018-08-30T07:39:18.492Z,67.25
2018-08-30T07:40:18.347Z,67.54
2018-08-30T07:41:18.375Z,67.72
2018-08-30T07:42:18.383Z,67.15
2018-08-30T07:43:18.389Z,68.01
2018-08-30T07:44:18.657Z,67.34
2018-08-30T07:45:18.437Z,67.72
2018-08-30T07:46:18.431Z,67.88
2018-08-30T07:47:18.508Z,67.98
2018-08-30T07:48:18.451Z,68.94
2018-08-30T07:49:18.614Z,68.74
2018-08-30T07:50:18.476Z,68.46
2018-08-30T07:51:18.471Z,68.84
2018-08-30T07:52:18.497Z,68.17
2018-08-30T07:53:18.508Z,68.65
2018-08-30T07:54:18.673Z,68.65
2018-08-30T07:55:18.540Z,68.55
2018-08-30T07:56:18.527Z,69.51
2018-08-30T07:57:18.565Z,69.99
2018-08-30T07:58:18.572Z,70.09
2018-08-30T07:59:18.733Z,69.80
2018-08-30T08:00:18.589Z,70.37
2018-08-30T08:01:18.609Z,70.56
2018-08-30T08:02:18.615Z,70.28
2018-08-30T08:03:18.633Z,70.28
2018-08-30T08:04:18.778Z,70.28
2018-08-30T08:05:18.652Z,70.37
2018-08-30T08:06:18.651Z,70.95
2018-08-30T08:07:18.743Z,71.04
2018-08-30T08:08:18.689Z,70.85
2018-08-30T08:09:18.850Z,71.33
2018-08-30T08:10:18.711Z,70.76
2018-08-30T08:11:18.719Z,71.14
2018-08-30T08:12:18.725Z,70.76
2018-08-30T08:13:18.727Z,70.95
2018-08-30T08:14:18.997Z,71.04
2018-08-30T08:15:18.770Z,71.14
2018-08-30T08:16:18.779Z,71.42
2018-08-30T08:17:18.795Z,71.52
2018-08-30T08:18:18.796Z,71.91
2018-08-30T08:19:18.819Z,71.42
2018-08-30T08:20:18.977Z,71.52
2018-08-30T08:21:18.847Z,71.52
2018-08-30T08:22:18.853Z,71.42
2018-08-30T08:23:19.498Z,71.14
2018-08-30T08:24:19.701Z,71.33
2018-08-30T08:25:20.025Z,71.33
2018-08-30T08:26:18.902Z,71.81
2018-08-30T08:27:19.415Z,72.09
2018-08-30T08:28:19.409Z,71.52
2018-08-30T08:29:19.722Z,71.42
2018-08-30T08:30:19.083Z,71.04
2018-08-30T08:31:19.021Z,71.42
2018-08-30T08:32:19.660Z,71.04
2018-08-30T08:33:19.527Z,71.91
2018-08-30T08:34:19.910Z,71.52
2018-08-30T08:35:20.168Z,72.19
2018-08-30T08:36:19.958Z,72.09
2018-08-30T08:37:20.182Z,71.81
2018-08-30T08:38:19.221Z,72.09
2018-08-30T08:39:19.596Z,72.38
2018-08-30T08:40:19.804Z,72.67
2018-08-30T08:41:19.560Z,72.58
2018-08-30T08:43:19.585Z,72.77
2018-08-30T08:44:19.597Z,73.05
2018-08-30T08:45:19.803Z,72.77
2018-08-30T08:46:19.617Z,73.05
2018-08-30T08:47:19.874Z,73.05
2018-08-30T08:48:19.693Z,73.24
2018-08-30T08:49:20.120Z,73.34
2018-08-30T08:50:19.804Z,73.05
2018-08-30T08:51:19.951Z,73.15
2018-08-30T08:53:20.028Z,73.54
2018-08-30T08:54:19.744Z,72.86
2018-08-30T08:55:20.326Z,73.54
2018-08-30T08:56:19.931Z,74.11
2018-08-30T08:58:19.749Z,73.54
2018-08-30T08:59:19.853Z,73.82
2018-08-30T09:00:19.529Z,73.54
2018-08-30T09:01:19.967Z,73.82
2018-08-30T09:02:20.731Z,73.72
2018-08-30T09:03:20.233Z,74.49
2018-08-30T09:04:20.306Z,73.82
2018-08-30T09:05:19.988Z,73.63
2018-08-30T09:06:19.835Z,73.63
2018-08-30T09:07:20.096Z,73.63
2018-08-30T09:08:20.208Z,74.49
2018-08-30T09:09:20.173Z,73.63
2018-08-30T09:10:20.315Z,73.63
2018-08-30T09:11:20.113Z,73.54
2018-08-30T09:12:20.238Z,73.44
2018-08-30T09:13:20.396Z,73.72
2018-08-30T09:14:20.045Z,73.72
2018-08-30T09:15:19.635Z,73.72
2018-08-30T09:16:19.477Z,73.54
2018-08-30T09:17:19.480Z,73.63
2018-08-30T09:18:19.516Z,73.91
2018-08-30T09:19:19.519Z,73.82
2018-08-30T09:20:19.674Z,74.49
2018-08-30T09:21:19.538Z,73.91
2018-08-30T09:22:19.602Z,74.58
2018-08-30T09:23:19.572Z,73.44
2018-08-30T09:24:19.573Z,73.63
2018-08-30T09:25:19.685Z,74.20
2018-08-30T09:26:19.601Z,73.82
2018-08-30T09:27:19.620Z,74.40
2018-08-30T09:28:19.617Z,74.26
2018-08-30T09:29:19.620Z,74.40
2018-08-30T09:30:19.900Z,74.01
2018-08-30T09:31:19.661Z,74.40
2018-08-30T09:32:19.668Z,74.11
2018-08-30T09:33:19.689Z,74.30
2018-08-30T09:34:19.695Z,74.11
2018-08-30T09:35:19.742Z,74.30
2018-08-30T09:36:19.816Z,73.82
2018-08-30T09:37:19.724Z,73.82
2018-08-30T09:38:19.740Z,73.72
2018-08-30T09:39:19.752Z,73.44
2018-08-30T09:40:19.763Z,73.63
2018-08-30T09:41:20.577Z,73.63
2018-08-30T09:42:19.787Z,73.63
2018-08-30T09:43:19.803Z,73.24
2018-08-30T09:44:19.814Z,73.82
2018-08-30T09:45:19.819Z,72.96
2018-08-30T09:46:19.836Z,73.44
2018-08-30T09:47:19.993Z,72.86
2018-08-30T09:48:19.858Z,71.62
2018-08-30T09:49:20.387Z,71.08
2018-08-30T09:50:20.404Z,69.93
2018-08-30T09:51:19.879Z,69.45
2018-08-30T09:52:20.064Z,68.11
2018-08-30T09:53:19.923Z,68.01
2018-08-30T09:54:19.934Z,67.54
2018-08-30T09:55:19.943Z,66.80
2018-08-30T09:56:19.957Z,65.94
2018-08-30T09:57:20.475Z,65.36
2018-08-30T09:58:19.974Z,63.35
2018-08-30T09:59:20.514Z,63.54
2018-08-30T10:00:20.193Z,62.49
2018-08-30T10:01:20.017Z,62.90
2018-08-30T10:02:20.180Z,62.04
2018-08-30T10:03:20.042Z,62.04
2018-08-30T10:04:20.059Z,61.66
2018-08-30T10:05:20.073Z,59.58
2018-08-30T10:06:20.072Z,58.23
2018-08-30T10:07:20.345Z,58.33
2018-08-30T10:08:20.114Z,57.18
2018-08-30T10:09:20.105Z,56.22
2018-08-30T10:10:20.135Z,56.02
2018-08-30T10:11:20.148Z,55.86
2018-08-30T10:12:20.457Z,54.49
2018-08-30T10:13:20.217Z,54.58
2018-08-30T10:14:20.235Z,54.97
2018-08-30T10:15:20.251Z,54.49
2018-08-30T10:16:20.213Z,55.45
2018-08-30T10:17:20.471Z,55.55
2018-08-30T10:18:20.243Z,55.16
2018-08-30T10:19:20.237Z,55.26
2018-08-30T10:20:20.265Z,55.93
2018-08-30T10:21:20.297Z,56.31
2018-08-30T10:22:20.442Z,56.70
2018-08-30T10:23:20.294Z,57.37
2018-08-30T10:24:20.319Z,56.12
2018-08-30T10:25:20.384Z,55.83
2018-08-30T10:26:20.345Z,56.22
2018-08-30T10:27:20.516Z,55.93
2018-08-30T10:28:20.375Z,55.64
2018-08-30T10:29:20.372Z,55.45
2018-08-30T10:30:20.400Z,55.26
2018-08-30T10:31:20.451Z,54.80
2018-08-30T10:32:20.565Z,54.52
2018-08-30T10:33:20.441Z,55.00
2018-08-30T10:34:20.453Z,54.23
2018-08-30T10:35:20.473Z,53.66
2018-08-30T10:36:20.479Z,53.85
2018-08-30T10:37:20.655Z,53.46
2018-08-30T10:38:20.516Z,52.89
2018-08-30T10:39:20.507Z,52.43
2018-08-30T10:40:20.530Z,52.62
2018-08-30T10:41:20.560Z,51.67
2018-08-30T10:42:20.654Z,51.47
2018-08-30T10:43:20.605Z,51.37
2018-08-30T10:44:20.594Z,51.37
2018-08-30T10:45:20.606Z,50.23
2018-08-30T10:46:20.627Z,50.99
2018-08-30T10:47:20.785Z,49.67
2018-08-30T10:48:20.653Z,49.67
2018-08-30T10:49:20.680Z,48.90
2018-08-30T10:50:20.678Z,49.10
2018-08-30T10:51:20.695Z,49.67
2018-08-30T10:52:20.843Z,49.19
2018-08-30T10:53:20.724Z,48.74
2018-08-30T10:54:20.744Z,47.77
2018-08-30T10:55:20.757Z,47.68
2018-08-30T10:56:20.786Z,47.10
2018-08-30T10:57:20.782Z,46.91
2018-08-30T10:58:20.968Z,46.81
2018-08-30T10:59:20.811Z,46.43
2018-08-30T11:00:20.829Z,45.87
2018-08-30T11:01:20.845Z,46.16
2018-08-30T11:02:20.865Z,45.68
2018-08-30T11:03:21.029Z,45.39
2018-08-30T11:04:20.921Z,44.91
2018-08-30T11:05:20.909Z,45.10
2018-08-30T11:06:20.919Z,43.95
2018-08-30T11:07:20.937Z,44.05
2018-08-30T11:08:21.203Z,44.14
2018-08-30T11:09:20.999Z,45.10
2018-08-30T11:10:21.016Z,44.43
2018-08-30T11:11:20.978Z,44.93
2018-08-30T11:12:21.022Z,43.88
2018-08-30T11:13:21.165Z,43.78
2018-08-30T11:14:21.045Z,43.68
2018-08-30T11:15:21.058Z,43.11
2018-08-30T11:16:21.078Z,43.11
2018-08-30T11:17:21.089Z,42.33
2018-08-30T11:18:22.197Z,42.24
2018-08-30T11:19:21.703Z,42.07
2018-08-30T11:20:22.288Z,41.88
2018-08-30T11:21:22.099Z,41.97
2018-08-30T11:22:22.112Z,42.07
2018-08-30T11:23:21.336Z,42.38
2018-08-30T11:24:21.203Z,40.74
2018-08-30T11:25:21.227Z,40.74
2018-08-30T11:26:21.231Z,40.55
2018-08-30T11:27:21.251Z,40.74
2018-08-30T11:28:21.353Z,40.26
2018-08-30T11:29:21.266Z,39.97
2018-08-30T11:30:21.299Z,39.89
2018-08-30T11:31:21.317Z,40.76
2018-08-30T11:32:21.334Z,39.39
2018-08-30T11:33:21.501Z,39.51
2018-08-30T11:34:21.355Z,39.12
2018-08-30T11:35:21.407Z,39.51
2018-08-30T11:36:21.397Z,39.51
2018-08-30T11:37:21.416Z,39.22
2018-08-30T11:38:21.512Z,38.64
2018-08-30T11:39:21.447Z,38.54
2018-08-30T11:40:21.462Z,37.60
2018-08-30T11:41:21.569Z,37.50
2018-08-30T11:42:21.510Z,36.83
2018-08-30T11:43:21.781Z,36.83
2018-08-30T11:44:21.534Z,36.15
2018-08-30T11:45:21.554Z,35.48
2018-08-30T11:46:21.568Z,35.86
2018-08-30T11:47:21.577Z,35.38
2018-08-30T11:48:21.853Z,35.96
2018-08-30T11:49:21.617Z,35.38
2018-08-30T11:50:21.630Z,35.77
2018-08-30T11:51:21.647Z,35.98
2018-08-30T11:52:21.750Z,35.38
2018-08-30T11:53:22.629Z,36.06
2018-08-30T11:54:22.491Z,36.54
2018-08-30T11:55:22.180Z,35.40
2018-08-30T11:56:22.333Z,34.63
2018-08-30T11:57:22.297Z,33.95
2018-08-30T11:59:22.323Z,34.06
2018-08-30T12:00:22.830Z,33.78
2018-08-30T12:01:22.347Z,33.48
2018-08-30T12:02:22.374Z,32.81
2018-08-30T12:03:22.362Z,32.52
2018-08-30T12:04:22.828Z,33.48
2018-08-30T12:05:22.962Z,32.52
2018-08-30T12:06:22.469Z,33.48
2018-08-30T12:07:22.491Z,34.55
2018-08-30T12:08:22.521Z,33.87
2018-08-30T12:09:22.502Z,33.50
2018-08-30T12:10:22.947Z,32.64
2018-08-30T12:11:22.549Z,32.64
2018-08-30T12:12:22.956Z,31.57
2018-08-30T12:13:22.777Z,31.57
2018-08-30T12:14:22.592Z,31.86
2018-08-30T12:15:23.135Z,31.67
2018-08-30T12:16:22.520Z,31.20
2018-08-30T12:17:23.638Z,31.20
2018-08-30T12:18:22.864Z,30.72
2018-08-30T12:19:22.672Z,30.04
2018-08-30T12:22:22.730Z,30.62
2018-08-30T12:23:22.744Z,30.04
2018-08-30T12:25:22.915Z,30.24
2018-08-30T12:26:22.805Z,30.24
2018-08-30T12:27:22.818Z,31.01
2018-08-30T12:28:23.535Z,30.44
2018-08-30T12:29:22.840Z,29.57
2018-08-30T12:30:23.428Z,29.97
2018-08-30T12:32:23.172Z,29.39
2018-08-30T12:33:22.988Z,28.23
2018-08-30T12:34:22.944Z,28.81
2018-08-30T12:35:23.435Z,28.72
2018-08-30T12:36:23.031Z,28.62
2018-08-30T12:39:23.127Z,29.39
2018-08-30T12:40:23.527Z,29.01
2018-08-30T12:41:23.056Z,27.57
2018-08-30T12:42:23.564Z,27.57
2018-08-30T12:43:23.220Z,25.94
2018-08-30T12:44:23.194Z,26.42
2018-08-30T12:45:23.362Z,26.32
2018-08-30T12:46:23.252Z,27.58
2018-08-30T12:47:23.190Z,26.42
2018-08-30T12:48:23.273Z,27.39
2018-08-30T12:49:23.269Z,27.87
2018-08-30T12:50:23.885Z,25.66
2018-08-30T12:51:23.564Z,25.18
2018-08-30T12:52:23.315Z,25.29
2018-08-30T12:53:23.468Z,24.21
2018-08-30T12:54:23.480Z,24.51
2018-08-30T12:56:23.864Z,24.32
2018-08-30T12:57:23.449Z,24.32
2018-08-30T12:58:23.635Z,23.64
2018-08-30T12:59:23.467Z,23.64
2018-08-30T13:00:23.676Z,24.12
2018-08-30T13:01:24.022Z,24.62
2018-08-30T13:02:24.225Z,24.33
2018-08-30T13:03:23.715Z,23.94